Tug "trevor" — WCP6921 — position and weather

sailwx.info

Track history (hours):
 
Tides and Currents Weather Stations Pressure Air Temp Water Temp Dewpoint Dewpoint Depression Visibility Wind Speed Wind Dir Waves Ship Positions

Tug "trevor"

Owner: WEEKS MARINE, INC., CRANFORD, NJ. More information available from US FCC via Universal Licensing System and Coast Guard Vessel Documentation Center.

Last reported at 2015-Jul-28 04:33 UTC. Time now 2015-Jul-28 05:48 UTC.
Position N 38°48' W 075°06'.

Length 21 m; draft 2.9 m.

Type: Towing. MMSI: 366643140.

Date/timePositionNaut miles runAvg speedWind from/ knotsBaromVisibWave heightAir tempDewpointWater temp
2015-Jul-28 04:33N 38°48' W 075°06'0 0.0
2015-Jul-28 03:34N 38°48' W 075°06'0 0.0
2015-Jul-28 02:34N 38°48' W 075°06'5 5.4
2015-Jul-28 01:33N 38°52' W 075°11'5 5.4
2015-Jul-28 00:33N 38°48' W 075°06'0 0.1
2015-Jul-27 23:34N 38°48' W 075°06'4 4.2
2015-Jul-27 22:34N 38°52' W 075°06'5 5.0
2015-Jul-27 21:31N 38°57' W 075°07'4 4.7
2015-Jul-27 20:34N 39°01' W 075°09'2 2.0
2015-Jul-27 19:33N 39°03' W 075°10'0 0.1
2015-Jul-27 18:23N 39°03' W 075°10'0 0.1
2015-Jul-27 17:23N 39°03' W 075°10'0 0.2
2015-Jul-27 16:32N 39°03' W 075°10'0 0.2
2015-Jul-27 15:33N 39°03' W 075°10'0 0.5
2015-Jul-27 14:34N 39°03' W 075°10'1 1.3
2015-Jul-27 13:34N 39°02' W 075°09'0 0.1
2015-Jul-27 12:33N 39°02' W 075°10'4 4.1
2015-Jul-27 11:34N 38°58' W 075°08'7 6.7
2015-Jul-27 10:33N 38°51' W 075°06'4 3.5
2015-Jul-27 09:34N 38°48' W 075°06'0 0.0
2015-Jul-27 08:34N 38°48' W 075°06'0 0.0
2015-Jul-27 07:34N 38°48' W 075°06'0 0.0
2015-Jul-27 06:34N 38°48' W 075°06'0 0.0
2015-Jul-27 05:34N 38°48' W 075°06'0 0.0
2015-Jul-27 04:34N 38°48' W 075°06'0 0.0
2015-Jul-27 03:33N 38°48' W 075°06'0 0.0
2015-Jul-27 02:33N 38°48' W 075°06'0 0.0
2015-Jul-27 01:33N 38°48' W 075°06'0 0.0
2015-Jul-27 00:33N 38°48' W 075°06'0 0.0
2015-Jul-26 23:33N 38°48' W 075°06'0 0.0
2015-Jul-26 22:33N 38°48' W 075°06'0 0.0
2015-Jul-26 21:33N 38°48' W 075°06'0 0.0
2015-Jul-26 20:33N 38°48' W 075°06'0 0.0
2015-Jul-26 19:33N 38°48' W 075°06'2 2.0
2015-Jul-26 18:33N 38°49' W 075°08'1 1.2
2015-Jul-26 17:33N 38°49' W 075°06'0 0.3
2015-Jul-26 16:33N 38°49' W 075°06'1 0.8
2015-Jul-26 15:33N 38°49' W 075°07'0 0.3
2015-Jul-26 14:33N 38°49' W 075°08'1 0.5
2015-Jul-26 13:33N 38°49' W 075°07'2 1.5
2015-Jul-26 12:33N 38°50' W 075°09'0 0.1
2015-Jul-26 11:33N 38°50' W 075°09'0 0.2
2015-Jul-26 10:33N 38°50' W 075°08'3 2.5
2015-Jul-26 09:33N 38°48' W 075°06'0 0.0
2015-Jul-26 08:33N 38°48' W 075°06'0 0.0
2015-Jul-26 07:33N 38°48' W 075°06'0 0.0
2015-Jul-26 06:33N 38°48' W 075°06'1 1.2
2015-Jul-26 05:33N 38°49' W 075°07'4 3.9
2015-Jul-26 04:33N 38°53' W 075°06'7 7.4
2015-Jul-26 03:33N 38°60' W 075°08'8 8.1
2015-Jul-26 02:33N 39°07' W 075°13'9 8.6
2015-Jul-26 01:33N 39°14' W 075°19'8 8.1
2015-Jul-26 00:33N 39°20' W 075°26'7 6.8
2015-Jul-25 23:33N 39°25' W 075°31'5 5.3
2015-Jul-25 22:33N 39°31' W 075°33'5 5.0
2015-Jul-25 21:33N 39°36' W 075°34'5 4.7
2015-Jul-25 20:33N 39°40' W 075°32'6 6.2
2015-Jul-25 19:33N 39°46' W 075°29'7 6.8
2015-Jul-25 18:33N 39°50' W 075°22'0 0.1
2015-Jul-25 17:33N 39°49' W 075°22'0 0.0
2015-Jul-25 16:33N 39°49' W 075°22'0 0.0
2015-Jul-25 15:33N 39°49' W 075°22'0 0.0
2015-Jul-25 14:33N 39°49' W 075°22'0 0.0
2015-Jul-25 13:33N 39°49' W 075°22'0 0.0
2015-Jul-25 12:33N 39°49' W 075°22'0 0.0
2015-Jul-25 11:33N 39°49' W 075°22'0 0.0
2015-Jul-25 10:33N 39°49' W 075°22'0 0.0
2015-Jul-25 09:33N 39°49' W 075°22'0 0.0
2015-Jul-25 08:33N 39°49' W 075°22'0 0.0
2015-Jul-25 07:33N 39°49' W 075°22'0 0.0
2015-Jul-25 06:33N 39°49' W 075°22'0 0.0
2015-Jul-25 05:33N 39°49' W 075°22'0 0.0
2015-Jul-25 04:33N 39°49' W 075°22'0 0.0
2015-Jul-25 03:33N 39°49' W 075°22'0 0.0
2015-Jul-25 02:33N 39°49' W 075°22'0 0.0
2015-Jul-25 01:33N 39°49' W 075°22'0 0.0
2015-Jul-25 00:33N 39°49' W 075°22'0 0.0
2015-Jul-24 23:33N 39°49' W 075°22'0 0.1
2015-Jul-24 22:33N 39°49' W 075°22'0 0.1
2015-Jul-24 21:33N 39°49' W 075°22'0 0.1
2015-Jul-24 20:33N 39°49' W 075°22'0 0.1
2015-Jul-24 19:33N 39°49' W 075°22'0 0.0
2015-Jul-24 18:33N 39°49' W 075°22'0 0.0
2015-Jul-24 17:33N 39°49' W 075°22'0 0.0
2015-Jul-24 16:33N 39°49' W 075°22'0 0.1
2015-Jul-24 15:33N 39°49' W 075°22'0 0.0
2015-Jul-24 14:33N 39°49' W 075°22'0 0.0
2015-Jul-24 13:33N 39°49' W 075°22'0 0.0
2015-Jul-24 12:33N 39°49' W 075°22'0 0.0
2015-Jul-24 11:33N 39°49' W 075°22'0 0.1
2015-Jul-24 10:33N 39°49' W 075°22'0 0.0
2015-Jul-24 09:33N 39°49' W 075°22'0 0.0
2015-Jul-24 08:33N 39°49' W 075°22'0 0.0
2015-Jul-24 07:33N 39°49' W 075°22'0 0.0
2015-Jul-24 06:33N 39°49' W 075°22'0 0.0
2015-Jul-24 05:33N 39°49' W 075°22'0 0.0
2015-Jul-24 04:33N 39°49' W 075°22'0 0.0
2015-Jul-24 03:33N 39°49' W 075°22'2 2.1
2015-Jul-24 02:33N 39°51' W 075°20'7 6.8
2015-Jul-24 01:33N 39°54' W 075°12'0 0.1
2015-Jul-24 00:33N 39°54' W 075°11'0 0.1
2015-Jul-23 23:33N 39°54' W 075°12'4 3.5
2015-Jul-23 22:33N 39°51' W 075°15'5 5.4
2015-Jul-23 21:33N 39°49' W 075°22'0 0.0
2015-Jul-23 20:33N 39°49' W 075°22'0 0.0
2015-Jul-23 19:33N 39°49' W 075°22'0 0.1
2015-Jul-23 18:33N 39°49' W 075°22'0 0.0
2015-Jul-23 17:32N 39°49' W 075°22'0 0.0
2015-Jul-23 16:33N 39°49' W 075°22'0 0.0
2015-Jul-23 15:33N 39°49' W 075°22'0 0.0
2015-Jul-23 14:33N 39°49' W 075°22'0 0.0
2015-Jul-23 13:33N 39°49' W 075°22'0 0.0
2015-Jul-23 12:33N 39°49' W 075°22'0 0.0
2015-Jul-23 11:33N 39°49' W 075°22'0 0.0
2015-Jul-23 10:33N 39°49' W 075°22'0 0.0
2015-Jul-23 09:33N 39°49' W 075°22'0 0.0
2015-Jul-23 08:33N 39°49' W 075°22'0 0.0
2015-Jul-23 07:33N 39°49' W 075°22'0 0.0
2015-Jul-23 06:33N 39°49' W 075°22'0 0.0
2015-Jul-23 05:33N 39°49' W 075°22'0 0.0
2015-Jul-23 04:33N 39°49' W 075°22'0 0.0
2015-Jul-23 03:33N 39°49' W 075°22'0 0.0
2015-Jul-23 02:33N 39°49' W 075°22'0 0.0
2015-Jul-23 01:33N 39°49' W 075°22'0 0.0
2015-Jul-23 00:33N 39°49' W 075°22'0 0.0
2015-Jul-22 23:33N 39°49' W 075°22'0 0.0
2015-Jul-22 22:33N 39°49' W 075°22'0 0.0
2015-Jul-22 21:33N 39°49' W 075°22'0 0.0
2015-Jul-22 20:33N 39°49' W 075°22'0 0.0
2015-Jul-22 19:33N 39°49' W 075°22'0 0.0
2015-Jul-22 18:33N 39°49' W 075°22'0 0.0
2015-Jul-22 17:33N 39°49' W 075°22'0 0.0
2015-Jul-22 16:33N 39°49' W 075°22'0 0.0
2015-Jul-22 15:33N 39°49' W 075°22'0 0.0
2015-Jul-22 14:33N 39°49' W 075°22'0 0.0
2015-Jul-22 13:33N 39°49' W 075°22'0 0.0
2015-Jul-22 12:33N 39°49' W 075°22'0 0.1
2015-Jul-22 11:33N 39°49' W 075°22'2 2.4
2015-Jul-22 10:33N 39°48' W 075°25'5 4.6
2015-Jul-22 09:33N 39°45' W 075°29'7 7.0
2015-Jul-22 08:33N 39°39' W 075°33'5 5.5
2015-Jul-22 07:33N 39°34' W 075°33'7 6.8
2015-Jul-22 06:33N 39°27' W 075°33'7 6.8
2015-Jul-22 05:33N 39°22' W 075°27'7 6.9
2015-Jul-22 04:33N 39°17' W 075°21'6 6.3
2015-Jul-22 03:33N 39°11' W 075°17'6 6.3
2015-Jul-22 02:33N 39°06' W 075°12'6 6.4
2015-Jul-22 01:33N 39°00' W 075°09'6 6.3
2015-Jul-22 00:33N 38°55' W 075°05'5 5.1
2015-Jul-21 23:33N 38°50' W 075°02'4 4.4
2015-Jul-21 22:33N 38°49' W 074°57'5 4.5
2015-Jul-21 21:33N 38°50' W 074°51'5 4.6
2015-Jul-21 20:33N 38°54' W 074°48'5 4.7
2015-Jul-21 19:33N 38°57' W 074°53'0 0.4
2015-Jul-21 18:11N 38°57' W 074°53'3 5.1
2015-Jul-21 17:32N 38°55' W 074°50'7 6.7
2015-Jul-21 16:33N 38°49' W 074°55'7 6.7
2015-Jul-21 15:33N 38°50' W 075°03'6 6.1
2015-Jul-21 14:33N 38°52' W 075°11'0 0.0
2015-Jul-21 13:33N 38°52' W 075°11'0 0.0
2015-Jul-21 12:33N 38°52' W 075°11'0 0.0
2015-Jul-21 11:33N 38°52' W 075°11'0 0.3
2015-Jul-21 10:33N 38°52' W 075°11'4 4.3
2015-Jul-21 09:33N 38°49' W 075°07'1 1.4
2015-Jul-21 08:33N 38°48' W 075°06'0 0.0
2015-Jul-21 07:33N 38°48' W 075°06'0 0.0
2015-Jul-21 06:33N 38°48' W 075°06'0 0.0
2015-Jul-21 05:33N 38°48' W 075°06'0 0.0
2015-Jul-21 04:33N 38°48' W 075°06'1 1.3
2015-Jul-21 03:33N 38°49' W 075°05'7 6.8
2015-Jul-21 02:33N 38°56' W 075°06'7 6.9
2015-Jul-21 01:33N 39°02' W 075°10'8 8.3
2015-Jul-21 00:33N 39°09' W 075°15'1010.0
2015-Jul-20 23:33N 39°18' W 075°22'1010.2
2015-Jul-20 22:33N 39°25' W 075°31'9 9.1
2015-Jul-20 21:33N 39°34' W 075°33'7 7.5
2015-Jul-20 20:33N 39°41' W 075°31'7 7.1
2015-Jul-20 19:33N 39°48' W 075°26'6 6.3
2015-Jul-20 18:33N 39°51' W 075°19'3 3.5
2015-Jul-20 17:33N 39°51' W 075°15'0 0.0
2015-Jul-20 16:33N 39°51' W 075°15'0 0.1
2015-Jul-20 15:33N 39°51' W 075°15'6 5.7
2015-Jul-20 14:33N 39°50' W 075°22'0 0.4
2015-Jul-20 13:33N 39°49' W 075°22'0 0.0
2015-Jul-20 12:33N 39°49' W 075°22'0 0.0
2015-Jul-20 11:33N 39°49' W 075°22'0 0.0
2015-Jul-20 10:33N 39°49' W 075°22'0 0.0
2015-Jul-20 09:33N 39°49' W 075°22'0 0.0
2015-Jul-20 08:33N 39°49' W 075°22'0 0.0
2015-Jul-20 07:33N 39°49' W 075°22'0 0.0
2015-Jul-20 06:33N 39°49' W 075°22'0 0.0
2015-Jul-20 05:33N 39°49' W 075°22'0 0.0
2015-Jul-20 04:33N 39°49' W 075°22'0 0.0
2015-Jul-20 03:33N 39°49' W 075°22'0 0.0
2015-Jul-20 02:33N 39°49' W 075°22'0 0.0
2015-Jul-20 01:33N 39°49' W 075°22'0 0.0
2015-Jul-20 00:33N 39°49' W 075°22'0 0.0
2015-Jul-19 23:33N 39°49' W 075°22'0 0.0
2015-Jul-19 22:33N 39°49' W 075°22'0 0.0
2015-Jul-19 21:33N 39°49' W 075°22'4 4.2
2015-Jul-19 20:33N 39°48' W 075°27'8 8.4
2015-Jul-19 19:33N 39°40' W 075°32'8 7.8
2015-Jul-19 18:34N 39°32' W 075°33'9 8.7
2015-Jul-19 17:33N 39°24' W 075°30'9 9.4
2015-Jul-19 16:33N 39°17' W 075°21'9 8.9
2015-Jul-19 15:34N 39°10' W 075°15'9 8.8
2015-Jul-19 14:34N 39°02' W 075°09'9 9.2
2015-Jul-19 13:33N 38°53' W 075°04'9 8.7
2015-Jul-19 12:33N 38°46' W 074°60'7 7.5
2015-Jul-19 11:33N 38°38' W 074°59'53 7.6
2015-Jul-19 04:31N 37°47' W 075°17'  
Track history (hours):
 
Tides and Currents Weather Stations Pressure Air Temp Water Temp Dewpoint Dewpoint Depression Visibility Wind Speed Wind Dir Waves Ship Positions

Tug "trevor"

Owner: WEEKS MARINE, INC., CRANFORD, NJ. More information available from US FCC via Universal Licensing System and Coast Guard Vessel Documentation Center.

Last reported at 2015-Jul-28 04:33 UTC. Time now 2015-Jul-28 05:48 UTC.
Position N 38°48' W 075°06'.

Length 21 m; draft 2.9 m.

Type: Towing. MMSI: 366643140.

Date/timePositionNaut miles runAvg speedWind from/ knotsBaromVisibWave heightAir tempDewpointWater temp
2015-Jul-28 04:33N 38°48' W 075°06'0 0.0
2015-Jul-28 03:34N 38°48' W 075°06'0 0.0
2015-Jul-28 02:34N 38°48' W 075°06'5 5.4
2015-Jul-28 01:33N 38°52' W 075°11'5 5.4
2015-Jul-28 00:33N 38°48' W 075°06'0 0.1
2015-Jul-27 23:34N 38°48' W 075°06'4 4.2
2015-Jul-27 22:34N 38°52' W 075°06'5 5.0
2015-Jul-27 21:31N 38°57' W 075°07'4 4.7
2015-Jul-27 20:34N 39°01' W 075°09'2 2.0
2015-Jul-27 19:33N 39°03' W 075°10'0 0.1
2015-Jul-27 18:23N 39°03' W 075°10'0 0.1
2015-Jul-27 17:23N 39°03' W 075°10'0 0.2
2015-Jul-27 16:32N 39°03' W 075°10'0 0.2
2015-Jul-27 15:33N 39°03' W 075°10'0 0.5
2015-Jul-27 14:34N 39°03' W 075°10'1 1.3
2015-Jul-27 13:34N 39°02' W 075°09'0 0.1
2015-Jul-27 12:33N 39°02' W 075°10'4 4.1
2015-Jul-27 11:34N 38°58' W 075°08'7 6.7
2015-Jul-27 10:33N 38°51' W 075°06'4 3.5
2015-Jul-27 09:34N 38°48' W 075°06'0 0.0
2015-Jul-27 08:34N 38°48' W 075°06'0 0.0
2015-Jul-27 07:34N 38°48' W 075°06'0 0.0
2015-Jul-27 06:34N 38°48' W 075°06'0 0.0
2015-Jul-27 05:34N 38°48' W 075°06'0 0.0
2015-Jul-27 04:34N 38°48' W 075°06'0 0.0
2015-Jul-27 03:33N 38°48' W 075°06'0 0.0
2015-Jul-27 02:33N 38°48' W 075°06'0 0.0
2015-Jul-27 01:33N 38°48' W 075°06'0 0.0
2015-Jul-27 00:33N 38°48' W 075°06'0 0.0
2015-Jul-26 23:33N 38°48' W 075°06'0 0.0
2015-Jul-26 22:33N 38°48' W 075°06'0 0.0
2015-Jul-26 21:33N 38°48' W 075°06'0 0.0
2015-Jul-26 20:33N 38°48' W 075°06'0 0.0
2015-Jul-26 19:33N 38°48' W 075°06'2 2.0
2015-Jul-26 18:33N 38°49' W 075°08'1 1.2
2015-Jul-26 17:33N 38°49' W 075°06'0 0.3
2015-Jul-26 16:33N 38°49' W 075°06'1 0.8
2015-Jul-26 15:33N 38°49' W 075°07'0 0.3
2015-Jul-26 14:33N 38°49' W 075°08'1 0.5
2015-Jul-26 13:33N 38°49' W 075°07'2 1.5
2015-Jul-26 12:33N 38°50' W 075°09'0 0.1
2015-Jul-26 11:33N 38°50' W 075°09'0 0.2
2015-Jul-26 10:33N 38°50' W 075°08'3 2.5
2015-Jul-26 09:33N 38°48' W 075°06'0 0.0
2015-Jul-26 08:33N 38°48' W 075°06'0 0.0
2015-Jul-26 07:33N 38°48' W 075°06'0 0.0
2015-Jul-26 06:33N 38°48' W 075°06'1 1.2
2015-Jul-26 05:33N 38°49' W 075°07'4 3.9
2015-Jul-26 04:33N 38°53' W 075°06'7 7.4
2015-Jul-26 03:33N 38°60' W 075°08'8 8.1
2015-Jul-26 02:33N 39°07' W 075°13'9 8.6
2015-Jul-26 01:33N 39°14' W 075°19'8 8.1
2015-Jul-26 00:33N 39°20' W 075°26'7 6.8
2015-Jul-25 23:33N 39°25' W 075°31'5 5.3
2015-Jul-25 22:33N 39°31' W 075°33'5 5.0
2015-Jul-25 21:33N 39°36' W 075°34'5 4.7
2015-Jul-25 20:33N 39°40' W 075°32'6 6.2
2015-Jul-25 19:33N 39°46' W 075°29'7 6.8
2015-Jul-25 18:33N 39°50' W 075°22'0 0.1
2015-Jul-25 17:33N 39°49' W 075°22'0 0.0
2015-Jul-25 16:33N 39°49' W 075°22'0 0.0
2015-Jul-25 15:33N 39°49' W 075°22'0 0.0
2015-Jul-25 14:33N 39°49' W 075°22'0 0.0
2015-Jul-25 13:33N 39°49' W 075°22'0 0.0
2015-Jul-25 12:33N 39°49' W 075°22'0 0.0
2015-Jul-25 11:33N 39°49' W 075°22'0 0.0
2015-Jul-25 10:33N 39°49' W 075°22'0 0.0
2015-Jul-25 09:33N 39°49' W 075°22'0 0.0
2015-Jul-25 08:33N 39°49' W 075°22'0 0.0
2015-Jul-25 07:33N 39°49' W 075°22'0 0.0
2015-Jul-25 06:33N 39°49' W 075°22'0 0.0
2015-Jul-25 05:33N 39°49' W 075°22'0 0.0
2015-Jul-25 04:33N 39°49' W 075°22'0 0.0
2015-Jul-25 03:33N 39°49' W 075°22'0 0.0
2015-Jul-25 02:33N 39°49' W 075°22'0 0.0
2015-Jul-25 01:33N 39°49' W 075°22'0 0.0
2015-Jul-25 00:33N 39°49' W 075°22'0 0.0
2015-Jul-24 23:33N 39°49' W 075°22'0 0.1
2015-Jul-24 22:33N 39°49' W 075°22'0 0.1
2015-Jul-24 21:33N 39°49' W 075°22'0 0.1
2015-Jul-24 20:33N 39°49' W 075°22'0 0.1
2015-Jul-24 19:33N 39°49' W 075°22'0 0.0
2015-Jul-24 18:33N 39°49' W 075°22'0 0.0
2015-Jul-24 17:33N 39°49' W 075°22'0 0.0
2015-Jul-24 16:33N 39°49' W 075°22'0 0.1
2015-Jul-24 15:33N 39°49' W 075°22'0 0.0
2015-Jul-24 14:33N 39°49' W 075°22'0 0.0
2015-Jul-24 13:33N 39°49' W 075°22'0 0.0
2015-Jul-24 12:33N 39°49' W 075°22'0 0.0
2015-Jul-24 11:33N 39°49' W 075°22'0 0.1
2015-Jul-24 10:33N 39°49' W 075°22'0 0.0
2015-Jul-24 09:33N 39°49' W 075°22'0 0.0
2015-Jul-24 08:33N 39°49' W 075°22'0 0.0
2015-Jul-24 07:33N 39°49' W 075°22'0 0.0
2015-Jul-24 06:33N 39°49' W 075°22'0 0.0
2015-Jul-24 05:33N 39°49' W 075°22'0 0.0
2015-Jul-24 04:33N 39°49' W 075°22'0 0.0
2015-Jul-24 03:33N 39°49' W 075°22'2 2.1
2015-Jul-24 02:33N 39°51' W 075°20'7 6.8
2015-Jul-24 01:33N 39°54' W 075°12'0 0.1
2015-Jul-24 00:33N 39°54' W 075°11'0 0.1
2015-Jul-23 23:33N 39°54' W 075°12'4 3.5
2015-Jul-23 22:33N 39°51' W 075°15'5 5.4
2015-Jul-23 21:33N 39°49' W 075°22'0 0.0
2015-Jul-23 20:33N 39°49' W 075°22'0 0.0
2015-Jul-23 19:33N 39°49' W 075°22'0 0.1
2015-Jul-23 18:33N 39°49' W 075°22'0 0.0
2015-Jul-23 17:32N 39°49' W 075°22'0 0.0
2015-Jul-23 16:33N 39°49' W 075°22'0 0.0
2015-Jul-23 15:33N 39°49' W 075°22'0 0.0
2015-Jul-23 14:33N 39°49' W 075°22'0 0.0
2015-Jul-23 13:33N 39°49' W 075°22'0 0.0
2015-Jul-23 12:33N 39°49' W 075°22'0 0.0
2015-Jul-23 11:33N 39°49' W 075°22'0 0.0
2015-Jul-23 10:33N 39°49' W 075°22'0 0.0
2015-Jul-23 09:33N 39°49' W 075°22'0 0.0
2015-Jul-23 08:33N 39°49' W 075°22'0 0.0
2015-Jul-23 07:33N 39°49' W 075°22'0 0.0
2015-Jul-23 06:33N 39°49' W 075°22'0 0.0
2015-Jul-23 05:33N 39°49' W 075°22'0 0.0
2015-Jul-23 04:33N 39°49' W 075°22'0 0.0
2015-Jul-23 03:33N 39°49' W 075°22'0 0.0
2015-Jul-23 02:33N 39°49' W 075°22'0 0.0
2015-Jul-23 01:33N 39°49' W 075°22'0 0.0
2015-Jul-23 00:33N 39°49' W 075°22'0 0.0
2015-Jul-22 23:33N 39°49' W 075°22'0 0.0
2015-Jul-22 22:33N 39°49' W 075°22'0 0.0
2015-Jul-22 21:33N 39°49' W 075°22'0 0.0
2015-Jul-22 20:33N 39°49' W 075°22'0 0.0
2015-Jul-22 19:33N 39°49' W 075°22'0 0.0
2015-Jul-22 18:33N 39°49' W 075°22'0 0.0
2015-Jul-22 17:33N 39°49' W 075°22'0 0.0
2015-Jul-22 16:33N 39°49' W 075°22'0 0.0
2015-Jul-22 15:33N 39°49' W 075°22'0 0.0
2015-Jul-22 14:33N 39°49' W 075°22'0 0.0
2015-Jul-22 13:33N 39°49' W 075°22'0 0.0
2015-Jul-22 12:33N 39°49' W 075°22'0 0.1
2015-Jul-22 11:33N 39°49' W 075°22'2 2.4
2015-Jul-22 10:33N 39°48' W 075°25'5 4.6
2015-Jul-22 09:33N 39°45' W 075°29'7 7.0
2015-Jul-22 08:33N 39°39' W 075°33'5 5.5
2015-Jul-22 07:33N 39°34' W 075°33'7 6.8
2015-Jul-22 06:33N 39°27' W 075°33'7 6.8
2015-Jul-22 05:33N 39°22' W 075°27'7 6.9
2015-Jul-22 04:33N 39°17' W 075°21'6 6.3
2015-Jul-22 03:33N 39°11' W 075°17'6 6.3
2015-Jul-22 02:33N 39°06' W 075°12'6 6.4
2015-Jul-22 01:33N 39°00' W 075°09'6 6.3
2015-Jul-22 00:33N 38°55' W 075°05'5 5.1
2015-Jul-21 23:33N 38°50' W 075°02'4 4.4
2015-Jul-21 22:33N 38°49' W 074°57'5 4.5
2015-Jul-21 21:33N 38°50' W 074°51'5 4.6
2015-Jul-21 20:33N 38°54' W 074°48'5 4.7
2015-Jul-21 19:33N 38°57' W 074°53'0 0.4
2015-Jul-21 18:11N 38°57' W 074°53'3 5.1
2015-Jul-21 17:32N 38°55' W 074°50'7 6.7
2015-Jul-21 16:33N 38°49' W 074°55'7 6.7
2015-Jul-21 15:33N 38°50' W 075°03'6 6.1
2015-Jul-21 14:33N 38°52' W 075°11'0 0.0
2015-Jul-21 13:33N 38°52' W 075°11'0 0.0
2015-Jul-21 12:33N 38°52' W 075°11'0 0.0
2015-Jul-21 11:33N 38°52' W 075°11'0 0.3
2015-Jul-21 10:33N 38°52' W 075°11'4 4.3
2015-Jul-21 09:33N 38°49' W 075°07'1 1.4
2015-Jul-21 08:33N 38°48' W 075°06'0 0.0
2015-Jul-21 07:33N 38°48' W 075°06'0 0.0
2015-Jul-21 06:33N 38°48' W 075°06'0 0.0
2015-Jul-21 05:33N 38°48' W 075°06'0 0.0
2015-Jul-21 04:33N 38°48' W 075°06'1 1.3
2015-Jul-21 03:33N 38°49' W 075°05'7 6.8
2015-Jul-21 02:33N 38°56' W 075°06'7 6.9
2015-Jul-21 01:33N 39°02' W 075°10'8 8.3
2015-Jul-21 00:33N 39°09' W 075°15'1010.0
2015-Jul-20 23:33N 39°18' W 075°22'1010.2
2015-Jul-20 22:33N 39°25' W 075°31'9 9.1
2015-Jul-20 21:33N 39°34' W 075°33'7 7.5
2015-Jul-20 20:33N 39°41' W 075°31'7 7.1
2015-Jul-20 19:33N 39°48' W 075°26'6 6.3
2015-Jul-20 18:33N 39°51' W 075°19'3 3.5
2015-Jul-20 17:33N 39°51' W 075°15'0 0.0
2015-Jul-20 16:33N 39°51' W 075°15'0 0.1
2015-Jul-20 15:33N 39°51' W 075°15'6 5.7
2015-Jul-20 14:33N 39°50' W 075°22'0 0.4
2015-Jul-20 13:33N 39°49' W 075°22'0 0.0
2015-Jul-20 12:33N 39°49' W 075°22'0 0.0
2015-Jul-20 11:33N 39°49' W 075°22'0 0.0
2015-Jul-20 10:33N 39°49' W 075°22'0 0.0
2015-Jul-20 09:33N 39°49' W 075°22'0 0.0
2015-Jul-20 08:33N 39°49' W 075°22'0 0.0
2015-Jul-20 07:33N 39°49' W 075°22'0 0.0
2015-Jul-20 06:33N 39°49' W 075°22'0 0.0
2015-Jul-20 05:33N 39°49' W 075°22'0 0.0
2015-Jul-20 04:33N 39°49' W 075°22'0 0.0
2015-Jul-20 03:33N 39°49' W 075°22'0 0.0
2015-Jul-20 02:33N 39°49' W 075°22'0 0.0
2015-Jul-20 01:33N 39°49' W 075°22'0 0.0
2015-Jul-20 00:33N 39°49' W 075°22'0 0.0
2015-Jul-19 23:33N 39°49' W 075°22'0 0.0
2015-Jul-19 22:33N 39°49' W 075°22'0 0.0
2015-Jul-19 21:33N 39°49' W 075°22'4 4.2
2015-Jul-19 20:33N 39°48' W 075°27'8 8.4
2015-Jul-19 19:33N 39°40' W 075°32'8 7.8
2015-Jul-19 18:34N 39°32' W 075°33'9 8.7
2015-Jul-19 17:33N 39°24' W 075°30'9 9.4
2015-Jul-19 16:33N 39°17' W 075°21'9 8.9
2015-Jul-19 15:34N 39°10' W 075°15'9 8.8
2015-Jul-19 14:34N 39°02' W 075°09'9 9.2
2015-Jul-19 13:33N 38°53' W 075°04'9 8.7
2015-Jul-19 12:33N 38°46' W 074°60'7 7.5
2015-Jul-19 11:33N 38°38' W 074°59'53 7.6
2015-Jul-19 04:31N 37°47' W 075°17'  

Dump ship's entire track history